Time;durP1;ratioP1;P1;durP2;ratioP2;P2;SDS_P1;SDS_P2;PMS_P1;PMS_P2;Temp;Humidity;BMP_temperature;BMP_pressure;BME280_temperature;BME280_humidity;BME280_pressure;Samples;Min_cycle;Max_cycle;Signal;HPM_P1;HPM_P2
2021/07/20 00:02:12;;;;;;;5.18;4.68;;;;;;;20.75;69.33;95745.94;5035340;28;20405;-87
2021/07/20 00:04:40;;;;;;;7.90;5.68;;;;;;;20.65;69.71;95744.75;5034591;28;20198;-86
2021/07/20 00:07:09;;;;;;;7.13;5.13;;;;;;;20.63;69.27;95743.38;5034401;28;20214;-86
2021/07/20 00:09:36;;;;;;;5.70;5.00;;;;;;;20.62;69.76;95734.75;5034988;28;20195;-86
2021/07/20 00:12:02;;;;;;;8.25;5.50;;;;;;;20.56;69.67;95734.91;5034086;28;20218;-86
2021/07/20 00:14:32;;;;;;;5.60;5.10;;;;;;;20.54;69.95;95735.13;5035304;28;20214;-84
2021/07/20 00:17:03;;;;;;;6.50;5.60;;;;;;;20.46;68.90;95727.66;5034974;28;20195;-86
2021/07/20 00:19:30;;;;;;;6.22;5.63;;;;;;;20.35;68.63;95724.03;5035665;28;20288;-85
2021/07/20 00:21:56;;;;;;;6.55;5.70;;;;;;;20.39;68.64;95723.59;5035473;28;20226;-85
2021/07/20 00:24:27;;;;;;;6.38;5.78;;;;;;;20.43;68.58;95725.50;5035741;28;20266;-84
2021/07/20 00:26:53;;;;;;;6.97;6.18;;;;;;;20.41;68.12;95727.56;5035880;28;20222;-84
2021/07/20 00:29:20;;;;;;;6.75;6.10;;;;;;;20.38;68.05;95720.19;5035762;28;20669;-86
2021/07/20 00:31:49;;;;;;;6.75;6.15;;;;;;;20.23;68.18;95722.47;5035065;28;20656;-85
2021/07/20 00:34:18;;;;;;;7.35;6.40;;;;;;;20.15;67.69;95707.19;5035176;28;20297;-85
2021/07/20 00:37:00;;;;;;;9.48;6.47;;;;;;;20.12;67.73;95705.81;5035804;28;20269;-83
2021/07/20 00:39:27;;;;;;;6.78;6.18;;;;;;;20.11;68.13;95706.84;5035446;28;20760;-84
2021/07/20 00:41:54;;;;;;;8.13;6.68;;;;;;;20.20;67.45;95710.69;5034741;28;20256;-84
2021/07/20 00:44:21;;;;;;;7.55;6.85;;;;;;;20.25;67.71;95712.59;5034804;28;20273;-84
2021/07/20 00:46:50;;;;;;;7.32;6.63;;;;;;;20.25;67.79;95709.97;5034485;28;20218;-85
2021/07/20 00:49:20;;;;;;;7.43;6.78;;;;;;;20.13;67.61;95699.56;5035833;28;20201;-86
2021/07/20 00:51:47;;;;;;;11.20;7.10;;;;;;;20.09;68.10;95703.66;5035287;28;20229;-85
2021/07/20 00:54:15;;;;;;;7.85;7.03;;;;;;;20.10;68.26;95709.69;5035576;28;20202;-84
2021/07/20 00:56:43;;;;;;;7.68;6.82;;;;;;;20.19;68.25;95703.09;5034973;28;20728;-86
2021/07/20 00:59:12;;;;;;;8.68;6.95;;;;;;;20.05;68.60;95701.75;5034947;28;20269;-86
2021/07/20 01:01:39;;;;;;;7.82;7.07;;;;;;;19.84;69.59;95698.72;5034751;28;20648;-86
2021/07/20 01:04:06;;;;;;;8.45;7.13;;;;;;;19.85;69.81;95702.94;5034375;28;20206;-86
2021/07/20 01:06:35;;;;;;;8.50;7.20;;;;;;;19.95;69.37;95703.16;5034322;28;20229;-86
2021/07/20 01:09:04;;;;;;;9.68;7.55;;;;;;;20.05;69.31;95705.16;5034834;28;20238;-85
2021/07/20 01:11:39;;;;;;;7.95;7.13;;;;;;;20.10;69.55;95691.41;5034094;28;20716;-86
2021/07/20 01:14:07;;;;;;;7.47;6.78;;;;;;;19.99;69.79;95703.50;5034254;28;20213;-86
2021/07/20 01:16:38;;;;;;;8.57;7.68;;;;;;;20.06;69.96;95692.88;5033957;28;20230;-86
2021/07/20 01:19:07;;;;;;;8.70;7.65;;;;;;;20.19;69.22;95700.47;5034064;28;20616;-86
2021/07/20 01:21:40;;;;;;;8.73;7.40;;;;;;;20.26;69.08;95690.63;5033260;28;20240;-85
2021/07/20 01:24:13;;;;;;;9.65;7.57;;;;;;;20.29;69.08;95690.97;5035087;28;20700;-85
2021/07/20 01:26:40;;;;;;;7.93;7.22;;;;;;;20.30;68.90;95684.72;5035078;28;20222;-86
2021/07/20 01:29:08;;;;;;;8.80;7.47;;;;;;;20.33;68.44;95688.69;5034966;28;20210;-86
2021/07/20 01:31:40;;;;;;;8.18;7.35;;;;;;;20.34;69.10;95690.28;5034329;28;20673;-86
2021/07/20 01:34:09;;;;;;;8.20;7.25;;;;;;;20.34;69.44;95683.22;5035051;28;20681;-86
2021/07/20 01:36:39;;;;;;;9.15;8.02;;;;;;;20.40;69.45;95694.56;5034328;28;20745;-86
2021/07/20 01:39:14;;;;;;;8.55;7.60;;;;;;;20.42;69.03;95692.53;5034700;28;20248;-86
2021/07/20 01:41:42;;;;;;;8.35;7.40;;;;;;;20.33;69.43;95697.31;5033500;28;20639;-85
2021/07/20 01:44:12;;;;;;;10.70;8.00;;;;;;;20.26;70.17;95680.97;5034378;28;20201;-84
2021/07/20 01:46:47;;;;;;;8.57;7.68;;;;;;;20.27;70.09;95687.00;5034753;28;20225;-85
2021/07/20 01:49:18;;;;;;;8.90;7.28;;;;;;;20.40;69.64;95681.50;5034395;28;20204;-84
2021/07/20 01:51:45;;;;;;;8.35;7.55;;;;;;;20.44;69.20;95682.63;5033689;28;20217;-84
2021/07/20 01:54:13;;;;;;;8.68;7.88;;;;;;;20.43;68.61;95681.03;5034223;28;20328;-85
2021/07/20 01:56:42;;;;;;;8.75;7.90;;;;;;;20.26;69.51;95688.03;5034112;28;20198;-86
2021/07/20 01:59:10;;;;;;;8.60;7.80;;;;;;;20.22;70.30;95685.09;5034260;28;20915;-86
2021/07/20 02:01:45;;;;;;;10.15;8.10;;;;;;;20.25;70.33;95687.22;5033773;28;20280;-85
2021/07/20 02:09:49;;;;;;;8.60;7.78;;;;;;;20.52;69.77;95700.56;5034750;28;20205;-85
2021/07/20 02:12:31;;;;;;;8.05;7.28;;;;;;;20.38;70.09;95695.88;5033734;28;20259;-86
2021/07/20 02:14:59;;;;;;;7.80;7.05;;;;;;;20.27;70.84;95692.22;5034249;28;20200;-86
2021/07/20 02:17:28;;;;;;;8.73;7.70;;;;;;;20.27;71.34;95697.47;5034327;28;20209;-86
2021/07/20 02:20:01;;;;;;;8.48;7.68;;;;;;;20.29;71.09;95690.97;5035691;28;20202;-86
2021/07/20 02:22:28;;;;;;;8.48;7.15;;;;;;;20.34;70.90;95698.13;5036115;28;20298;-86
2021/07/20 02:24:56;;;;;;;10.00;7.53;;;;;;;20.30;70.81;95707.47;5037437;28;20728;-85
2021/07/20 02:27:25;;;;;;;8.00;7.15;;;;;;;20.26;70.76;95703.72;5037285;28;20724;-84
2021/07/20 02:29:54;;;;;;;7.97;7.18;;;;;;;20.19;71.61;95706.50;5037588;28;20198;-84
2021/07/20 02:32:23;;;;;;;8.48;7.68;;;;;;;20.07;72.52;95710.94;5037019;28;20221;-86
2021/07/20 02:34:51;;;;;;;7.90;7.20;;;;;;;19.99;72.52;95706.91;5037306;28;20457;-86
2021/07/20 02:37:18;;;;;;;9.07;7.88;;;;;;;19.74;73.98;95705.59;5037165;28;20734;-84
2021/07/20 02:39:46;;;;;;;8.25;7.45;;;;;;;19.61;74.91;95709.25;5037504;28;20202;-84
2021/07/20 02:42:16;;;;;;;8.80;8.00;;;;;;;19.63;75.54;95709.78;5035915;28;20709;-86
2021/07/20 02:44:49;;;;;;;8.77;7.82;;;;;;;19.75;74.03;95707.19;5035468;28;20289;-87
2021/07/20 02:47:17;;;;;;;10.00;8.48;;;;;;;19.77;73.64;95695.47;5035671;28;20222;-86
2021/07/20 02:49:45;;;;;;;8.60;7.70;;;;;;;19.80;73.85;95699.44;5035521;28;20194;-86
2021/07/20 02:52:12;;;;;;;8.52;7.70;;;;;;;19.71;74.33;95703.44;5036174;28;20218;-86
2021/07/20 02:54:40;;;;;;;8.85;7.95;;;;;;;19.82;73.48;95705.25;5038190;28;20198;-86
2021/07/20 02:57:10;;;;;;;8.63;7.70;;;;;;;19.81;73.73;95714.09;5042013;28;20229;-87
2021/07/20 02:59:39;;;;;;;8.77;7.68;;;;;;;19.70;74.12;95715.69;5040961;28;20197;-86
2021/07/20 03:02:09;;;;;;;8.57;7.78;;;;;;;19.73;74.13;95706.63;5039995;28;20209;-86
2021/07/20 03:04:36;;;;;;;9.35;7.90;;;;;;;19.75;73.97;95715.81;5041013;28;20195;-85
2021/07/20 03:07:07;;;;;;;7.85;7.10;;;;;;;19.73;74.27;95704.78;5041792;28;20298;-86
2021/07/20 03:09:36;;;;;;;8.90;7.13;;;;;;;19.61;75.71;95702.22;5041478;28;20208;-86
2021/07/20 03:12:05;;;;;;;8.50;7.68;;;;;;;19.52;76.96;95703.56;5041444;28;20309;-86
2021/07/20 03:14:34;;;;;;;8.18;7.38;;;;;;;19.56;76.80;95712.56;5039931;28;20202;-86
2021/07/20 03:17:06;;;;;;;8.48;7.68;;;;;;;19.65;75.48;95715.59;5039289;28;20678;-86
2021/07/20 03:19:34;;;;;;;8.43;7.63;;;;;;;19.73;74.74;95711.84;5038878;28;20248;-86
2021/07/20 03:22:07;;;;;;;10.63;8.68;;;;;;;19.64;75.28;95717.41;5038289;28;20225;-86
2021/07/20 03:24:40;;;;;;;8.60;7.70;;;;;;;19.62;75.47;95719.47;5038490;28;20213;-84
2021/07/20 03:27:09;;;;;;;9.38;7.72;;;;;;;19.58;76.03;95718.34;5037355;28;20217;-84
2021/07/20 03:29:42;;;;;;;9.40;8.40;;;;;;;19.56;76.59;95720.38;5036949;28;20285;-85
2021/07/20 03:32:11;;;;;;;9.70;7.97;;;;;;;19.63;75.72;95722.84;5036115;28;20225;-86
2021/07/20 03:34:41;;;;;;;10.68;8.38;;;;;;;19.66;75.66;95722.41;5037027;28;20232;-86
2021/07/20 03:37:09;;;;;;;10.57;8.68;;;;;;;19.59;75.72;95717.31;5036948;28;20202;-86
2021/07/20 03:39:37;;;;;;;10.15;7.70;;;;;;;19.60;75.97;95723.34;5036539;28;20288;-86
2021/07/20 03:42:04;;;;;;;9.13;7.78;;;;;;;19.52;77.21;95732.31;5035816;28;20218;-86
2021/07/20 03:44:35;;;;;;;9.18;8.38;;;;;;;19.55;77.40;95726.63;5036284;28;20268;-86
2021/07/20 03:47:06;;;;;;;9.80;8.52;;;;;;;19.51;78.36;95732.53;5036854;28;20245;-86
2021/07/20 03:49:35;;;;;;;10.10;8.60;;;;;;;19.56;77.53;95733.44;5036843;28;20230;-86
2021/07/20 03:52:05;;;;;;;9.65;8.57;;;;;;;19.56;77.79;95735.25;5035944;28;20712;-86
2021/07/20 03:54:33;;;;;;;10.82;8.63;;;;;;;19.54;77.89;95738.09;5036576;28;20202;-86
2021/07/20 03:57:01;;;;;;;9.55;8.48;;;;;;;19.45;77.99;95731.59;5038191;28;20234;-85
2021/07/20 03:59:38;;;;;;;10.15;9.15;;;;;;;19.42;78.47;95736.50;5037314;28;20238;-84
2021/07/20 04:02:08;;;;;;;10.70;9.25;;;;;;;19.45;78.66;95747.25;5037950;28;20245;-84
2021/07/20 04:04:39;;;;;;;8.95;8.05;;;;;;;19.50;78.71;95744.00;5037186;28;20202;-84
2021/07/20 04:07:08;;;;;;;9.70;8.70;;;;;;;19.58;77.77;95741.06;5036713;28;20249;-84
2021/07/20 04:09:38;;;;;;;9.40;8.50;;;;;;;19.64;77.71;95746.16;5037264;28;20240;-85
2021/07/20 04:12:06;;;;;;;9.52;8.45;;;;;;;19.63;77.69;95747.16;5037084;28;20222;-84
2021/07/20 04:14:33;;;;;;;9.38;8.48;;;;;;;19.73;76.63;95751.81;5037169;28;20228;-86
2021/07/20 04:17:01;;;;;;;9.55;8.55;;;;;;;19.70;77.22;95744.44;5038066;28;20252;-85
2021/07/20 04:19:31;;;;;;;10.85;8.80;;;;;;;19.67;78.01;95750.91;5037562;28;20257;-85
2021/07/20 04:22:00;;;;;;;10.57;8.68;;;;;;;19.67;77.28;95757.97;5037176;28;20697;-86
2021/07/20 04:24:45;;;;;;;10.95;8.48;;;;;;;19.78;77.12;95762.38;5037322;28;20229;-86
2021/07/20 04:27:16;;;;;;;9.10;8.18;;;;;;;19.81;77.34;95758.53;5036142;28;20253;-86
2021/07/20 04:29:48;;;;;;;9.05;8.13;;;;;;;19.92;76.15;95760.31;5037186;28;20584;-86
2021/07/20 04:32:19;;;;;;;9.32;8.23;;;;;;;19.82;77.40;95766.13;5036642;28;20254;-86
2021/07/20 04:34:53;;;;;;;9.85;8.85;;;;;;;19.80;77.39;95772.63;5036982;28;20244;-86
2021/07/20 04:37:22;;;;;;;9.43;8.52;;;;;;;19.79;77.11;95773.63;5037005;28;20234;-86
2021/07/20 04:39:51;;;;;;;9.60;8.60;;;;;;;19.60;79.53;95773.78;5036844;28;20205;-86
2021/07/20 04:42:17;;;;;;;9.65;8.45;;;;;;;19.56;79.48;95767.41;5036809;28;20226;-86
2021/07/20 04:44:50;;;;;;;12.45;8.95;;;;;;;19.50;79.76;95767.50;5037285;28;20202;-86
2021/07/20 04:47:19;;;;;;;14.63;13.18;;;;;;;19.65;78.74;95766.03;5037394;28;20230;-86
2021/07/20 04:49:49;;;;;;;10.35;9.35;;;;;;;19.68;78.69;95767.38;5037395;28;20724;-86
2021/07/20 04:52:26;;;;;;;10.35;9.27;;;;;;;19.64;79.17;95772.28;5037803;28;20226;-86
2021/07/20 04:55:02;;;;;;;9.98;8.98;;;;;;;19.64;78.91;95774.88;5036942;28;20204;-87
2021/07/20 04:57:30;;;;;;;9.95;8.95;;;;;;;19.56;80.33;95771.84;5036673;28;20210;-85
2021/07/20 04:59:57;;;;;;;9.25;8.35;;;;;;;19.60;80.02;95780.81;5036333;28;20661;-86
2021/07/20 05:02:25;;;;;;;9.95;8.95;;;;;;;19.69;78.85;95779.44;5036180;28;20290;-86
2021/07/20 05:04:53;;;;;;;10.55;8.63;;;;;;;19.79;77.36;95784.88;5036777;28;20202;-86
2021/07/20 05:07:22;;;;;;;9.00;8.10;;;;;;;19.82;76.84;95786.25;5036457;28;20253;-85
2021/07/20 05:09:57;;;;;;;10.10;9.10;;;;;;;19.70;78.09;95790.66;5037126;28;20673;-86
2021/07/20 05:12:25;;;;;;;9.35;8.45;;;;;;;19.76;76.86;95795.00;5036744;28;20214;-86
2021/07/20 05:14:55;;;;;;;9.50;8.57;;;;;;;19.83;76.29;95790.44;5036941;28;20202;-86
2021/07/20 05:17:23;;;;;;;9.57;8.68;;;;;;;19.87;74.61;95784.53;5035421;28;20229;-86
2021/07/20 05:19:50;;;;;;;9.35;8.48;;;;;;;19.85;75.18;95788.38;5036655;28;20209;-86
2021/07/20 05:22:20;;;;;;;9.45;8.45;;;;;;;19.99;74.02;95792.38;5036047;28;20494;-87
2021/07/20 05:24:47;;;;;;;12.25;9.32;;;;;;;19.90;73.03;95793.72;5035770;28;20210;-86
2021/07/20 05:27:15;;;;;;;10.25;8.63;;;;;;;20.06;72.28;95794.81;5036365;28;20200;-86
2021/07/20 05:29:46;;;;;;;9.90;8.93;;;;;;;20.18;71.15;95785.97;5036719;28;20201;-86
2021/07/20 05:32:20;;;;;;;9.48;8.45;;;;;;;20.24;68.92;95789.44;5035314;28;20218;-85
2021/07/20 05:35:10;;;;;;;;;;;;;;;;;;;;;
2021/07/20 05:37:42;;;;;;;8.57;7.68;;;;;;;20.25;70.18;95796.25;5030929;28;20294;-83
2021/07/20 05:40:10;;;;;;;8.85;7.93;;;;;;;20.39;68.23;95792.41;5035714;28;20292;-84
2021/07/20 05:42:45;;;;;;;9.70;8.35;;;;;;;20.50;66.37;95794.19;5035794;28;20214;-86
2021/07/20 05:45:14;;;;;;;9.23;8.27;;;;;;;20.47;65.34;95791.22;5036635;28;20206;-84
2021/07/20 05:47:43;;;;;;;8.80;8.00;;;;;;;20.31;65.77;95797.97;5036564;28;20227;-84
2021/07/20 05:50:27;;;;;;;8.60;7.68;;;;;;;20.47;65.70;95796.47;5035834;28;20213;-86
2021/07/20 05:53:03;;;;;;;11.90;8.45;;;;;;;20.58;65.25;95791.19;5033383;28;20225;-86
2021/07/20 05:55:31;;;;;;;11.02;8.30;;;;;;;20.70;64.19;95796.38;5035232;28;20225;-84
2021/07/20 05:58:06;;;;;;;9.38;7.82;;;;;;;20.85;62.37;95796.63;5035802;28;20241;-86
2021/07/20 06:03:26;;;;;;;10.95;7.68;;;;;;;20.90;61.95;95793.31;5033721;28;20343;-85
2021/07/20 06:05:56;;;;;;;9.23;7.88;;;;;;;20.99;61.26;95800.53;5035533;28;20276;-85
2021/07/20 06:08:24;;;;;;;9.90;7.93;;;;;;;20.88;60.50;95790.94;5035021;28;20308;-86
2021/07/20 06:10:54;;;;;;;8.55;7.03;;;;;;;20.90;61.32;95793.31;5035665;28;20213;-85
2021/07/20 06:13:25;;;;;;;9.95;8.25;;;;;;;20.75;62.17;95793.84;5037220;28;20218;-85
2021/07/20 06:15:53;;;;;;;8.32;7.43;;;;;;;20.96;62.14;95803.66;5037586;28;20198;-86
2021/07/20 06:18:20;;;;;;;9.05;7.72;;;;;;;21.04;62.42;95787.53;5037235;28;20730;-86
2021/07/20 06:20:51;;;;;;;8.55;7.35;;;;;;;21.12;61.96;95794.22;5038032;28;20198;-86
2021/07/20 06:23:18;;;;;;;8.45;7.65;;;;;;;21.18;62.16;95800.31;5037087;28;20226;-86
2021/07/20 06:25:45;;;;;;;8.52;7.18;;;;;;;21.34;61.88;95804.81;5037476;28;20228;-86
2021/07/20 06:28:15;;;;;;;9.05;7.82;;;;;;;21.39;60.38;95812.75;5036804;28;20258;-86
2021/07/20 06:30:43;;;;;;;8.40;7.60;;;;;;;21.31;60.62;95806.09;5041468;28;20233;-86
2021/07/20 06:33:13;;;;;;;9.13;7.85;;;;;;;21.30;61.42;95809.75;5040239;28;20214;-86
2021/07/20 06:35:41;;;;;;;8.35;7.45;;;;;;;21.14;59.23;95813.13;5038639;28;20213;-85
2021/07/20 06:38:09;;;;;;;7.97;7.18;;;;;;;21.17;60.41;95812.63;5038505;28;20228;-87
2021/07/20 06:40:36;;;;;;;7.93;7.18;;;;;;;21.15;61.72;95816.53;5038498;28;20198;-86
2021/07/20 06:43:03;;;;;;;9.30;7.75;;;;;;;21.13;59.83;95816.75;5037731;28;20222;-86
2021/07/20 06:45:30;;;;;;;8.40;7.45;;;;;;;21.16;59.80;95818.91;5038579;28;20220;-86
2021/07/20 06:47:58;;;;;;;9.48;7.82;;;;;;;21.07;59.64;95816.91;5038056;28;20587;-86
2021/07/20 06:50:25;;;;;;;9.15;7.35;;;;;;;21.20;59.46;95809.56;5038428;28;20289;-86
2021/07/20 06:52:51;;;;;;;8.55;7.68;;;;;;;21.29;58.73;95813.38;5036111;28;20744;-87
2021/07/20 06:55:20;;;;;;;9.13;7.35;;;;;;;21.35;59.07;95816.88;5038700;28;20289;-86
2021/07/20 06:57:49;;;;;;;8.02;7.22;;;;;;;21.45;59.09;95811.00;5038511;28;20210;-85
2021/07/20 07:00:18;;;;;;;8.45;7.55;;;;;;;21.57;59.40;95827.41;5037910;28;20574;-84
2021/07/20 07:02:46;;;;;;;8.50;7.60;;;;;;;21.65;59.97;95816.53;5038121;28;20224;-85
2021/07/20 07:05:18;;;;;;;8.40;7.53;;;;;;;21.65;57.88;95816.53;5037178;28;20279;-85
2021/07/20 07:07:47;;;;;;;7.93;7.13;;;;;;;21.46;59.42;95820.44;5037464;28;20213;-84
2021/07/20 07:10:17;;;;;;;8.63;7.22;;;;;;;21.52;58.24;95814.25;5036933;28;20729;-84
2021/07/20 07:12:47;;;;;;;8.48;7.57;;;;;;;21.47;57.60;95811.56;5037010;28;20733;-83
2021/07/20 07:15:14;;;;;;;8.20;7.25;;;;;;;21.61;57.98;95812.81;5036598;28;20205;-84
2021/07/20 07:17:42;;;;;;;8.00;7.20;;;;;;;21.71;57.77;95818.22;5036174;28;20202;-85
2021/07/20 07:20:10;;;;;;;8.05;7.25;;;;;;;21.78;58.21;95816.19;5036174;28;20233;-84
2021/07/20 07:22:39;;;;;;;8.10;7.30;;;;;;;21.74;57.33;95814.31;5036124;28;20218;-86
2021/07/20 07:25:08;;;;;;;8.60;7.22;;;;;;;21.75;57.92;95814.06;5036205;28;20225;-86
2021/07/20 07:27:35;;;;;;;9.18;7.28;;;;;;;21.74;58.87;95824.81;5036799;28;20201;-86
2021/07/20 07:30:02;;;;;;;8.80;6.95;;;;;;;21.72;58.79;95822.44;5037175;28;20226;-86
2021/07/20 07:32:33;;;;;;;8.35;7.40;;;;;;;21.84;57.53;95822.31;5037361;28;20324;-85
2021/07/20 07:35:00;;;;;;;10.25;7.68;;;;;;;21.89;58.96;95823.19;5038018;28;20709;-83
2021/07/20 07:37:28;;;;;;;8.20;7.25;;;;;;;22.07;56.36;95822.16;5037257;28;20208;-84
2021/07/20 07:39:58;;;;;;;8.38;7.57;;;;;;;22.17;55.90;95819.63;5036842;28;20206;-86
2021/07/20 07:42:25;;;;;;;7.82;7.03;;;;;;;22.22;55.37;95821.53;5039989;28;20221;-86
2021/07/20 07:44:55;;;;;;;12.23;7.47;;;;;;;22.38;55.54;95831.19;5043193;28;20269;-86
2021/07/20 07:47:26;;;;;;;9.05;8.20;;;;;;;22.39;55.67;95825.69;5039049;28;20198;-86
2021/07/20 07:49:52;;;;;;;10.02;7.55;;;;;;;22.48;55.18;95817.41;5038584;28;20638;-86
2021/07/20 07:52:19;;;;;;;12.50;7.50;;;;;;;22.52;56.13;95815.84;5041155;28;20233;-86
2021/07/20 07:54:47;;;;;;;7.60;6.90;;;;;;;22.64;54.89;95817.31;5041821;28;20206;-86
2021/07/20 07:57:17;;;;;;;8.10;7.40;;;;;;;22.67;54.90;95808.97;5040940;28;20202;-86
2021/07/20 07:59:45;;;;;;;7.90;7.10;;;;;;;22.81;53.99;95816.47;5039113;28;20204;-86
2021/07/20 08:02:18;;;;;;;7.95;7.10;;;;;;;22.84;52.60;95810.72;5039248;28;20222;-86
2021/07/20 08:04:46;;;;;;;8.20;7.35;;;;;;;22.83;52.41;95814.38;5039606;28;20213;-83
2021/07/20 08:07:13;;;;;;;7.53;6.82;;;;;;;22.96;52.69;95822.66;5040032;28;20242;-83
2021/07/20 08:09:40;;;;;;;7.93;7.13;;;;;;;23.06;52.65;95817.50;5038663;28;20237;-85
2021/07/20 08:12:08;;;;;;;8.95;7.07;;;;;;;23.20;51.51;95809.22;5039241;28;20660;-84
2021/07/20 08:14:37;;;;;;;8.27;7.30;;;;;;;23.26;50.66;95814.25;5039220;28;20610;-84
2021/07/20 08:17:05;;;;;;;10.90;7.50;;;;;;;23.45;51.58;95813.88;5039363;28;20197;-85
2021/07/20 08:19:36;;;;;;;8.38;6.90;;;;;;;23.59;51.87;95822.94;5035541;28;20202;-84
2021/07/20 08:22:07;;;;;;;7.82;7.13;;;;;;;23.62;52.70;95817.19;5035544;28;20219;-84
2021/07/20 08:24:39;;;;;;;7.32;6.65;;;;;;;23.75;50.87;95816.75;5036251;28;20609;-86
2021/07/20 08:27:14;;;;;;;8.13;6.90;;;;;;;23.87;50.30;95819.16;5038812;28;20234;-84
2021/07/20 08:29:49;;;;;;;7.72;6.72;;;;;;;24.03;49.51;95819.03;5035951;28;20219;-84
2021/07/20 08:32:27;;;;;;;7.75;6.82;;;;;;;24.04;50.29;95817.97;5035399;28;20316;-86
2021/07/20 08:35:00;;;;;;;7.40;6.63;;;;;;;24.01;47.23;95818.50;5034192;28;20205;-85
2021/07/20 08:37:46;;;;;;;7.05;6.35;;;;;;;23.99;48.39;95820.56;5033830;28;20668;-84
2021/07/20 08:40:27;;;;;;;8.27;6.60;;;;;;;24.11;47.60;95825.63;5034139;28;20202;-85
2021/07/20 08:43:12;;;;;;;7.03;6.28;;;;;;;24.14;47.19;95821.69;5034184;28;20682;-86
2021/07/20 08:45:56;;;;;;;7.60;6.85;;;;;;;24.32;47.73;95829.97;5034486;28;20289;-84
2021/07/20 08:48:32;;;;;;;7.47;6.50;;;;;;;24.39;46.46;95827.13;5033212;28;20206;-84
2021/07/20 08:51:04;;;;;;;7.75;7.00;;;;;;;24.40;46.44;95834.75;5032133;28;20213;-85
2021/07/20 08:53:40;;;;;;;7.22;6.63;;;;;;;24.38;46.41;95826.31;5033280;28;20228;-86
2021/07/20 08:56:09;;;;;;;8.38;6.60;;;;;;;24.53;47.28;95833.47;5033366;28;20204;-86
2021/07/20 08:58:46;;;;;;;8.60;7.07;;;;;;;24.75;46.71;95834.09;5033359;28;20198;-86
2021/07/20 09:01:19;;;;;;;7.88;6.75;;;;;;;24.76;45.68;95834.88;5033147;28;20694;-86
2021/07/20 09:04:00;;;;;;;7.40;6.70;;;;;;;24.82;45.29;95833.84;5033524;28;20665;-86
2021/07/20 09:06:34;;;;;;;6.95;6.25;;;;;;;24.86;43.89;95829.63;5033869;28;20205;-83
2021/07/20 09:09:04;;;;;;;8.25;6.80;;;;;;;24.82;45.73;95831.22;5033189;28;20709;-86
2021/07/20 09:11:38;;;;;;;8.77;7.32;;;;;;;24.96;44.73;95823.63;5032469;28;20198;-86
2021/07/20 09:14:13;;;;;;;8.70;6.70;;;;;;;25.15;44.74;95834.44;5033148;28;20209;-86
2021/07/20 09:16:46;;;;;;;8.48;6.93;;;;;;;25.10;43.56;95829.97;5032126;28;20204;-86
2021/07/20 09:19:20;;;;;;;8.93;6.93;;;;;;;25.24;44.58;95825.75;5034004;28;20232;-86
2021/07/20 09:21:51;;;;;;;8.13;6.88;;;;;;;25.24;44.83;95833.66;5033841;28;20220;-86
2021/07/20 09:24:23;;;;;;;7.95;7.15;;;;;;;25.31;44.11;95828.13;5033690;28;20217;-86
2021/07/20 09:26:56;;;;;;;8.43;6.82;;;;;;;25.29;45.28;95835.50;5034199;28;20212;-86
2021/07/20 09:29:32;;;;;;;8.13;7.32;;;;;;;25.41;45.01;95831.56;5032290;28;20224;-86
2021/07/20 09:32:26;;;;;;;8.10;7.30;;;;;;;25.60;44.78;95828.38;5032785;28;20221;-86
2021/07/20 09:35:05;;;;;;;8.32;7.47;;;;;;;25.65;41.94;95829.19;5031964;28;20202;-86
2021/07/20 09:37:42;;;;;;;7.75;7.10;;;;;;;25.84;42.41;95826.81;5034543;28;20201;-86
2021/07/20 09:40:25;;;;;;;8.13;7.43;;;;;;;25.95;43.88;95822.31;5035712;28;20232;-86
2021/07/20 09:43:01;;;;;;;10.90;7.93;;;;;;;25.66;43.23;95830.00;5034352;28;20882;-86
2021/07/20 09:48:51;;;;;;;8.63;7.82;;;;;;;25.74;43.91;95832.09;5026813;28;20210;-84
2021/07/20 09:51:32;;;;;;;9.63;7.70;;;;;;;26.05;43.75;95830.97;5032632;28;20636;-84
2021/07/20 09:54:23;;;;;;;8.65;7.75;;;;;;;26.25;43.41;95827.50;5032024;28;20557;-86
2021/07/20 09:57:45;;;;;;;9.27;8.38;;;;;;;25.99;43.76;95824.13;5031101;28;20208;-84
2021/07/20 10:00:15;;;;;;;8.95;8.15;;;;;;;25.61;45.15;95820.19;5035008;28;20830;-84
2021/07/20 10:02:56;;;;;;;8.93;8.02;;;;;;;25.84;44.89;95832.06;5033052;28;20301;-85
2021/07/20 10:05:31;;;;;;;9.98;8.98;;;;;;;25.92;44.09;95828.13;5031304;28;20746;-85
2021/07/20 10:08:25;;;;;;;9.75;8.75;;;;;;;25.98;44.44;95825.19;5035752;28;20209;-85
2021/07/20 10:14:38;;;;;;;9.77;8.98;;;;;;;26.17;41.86;95819.34;4949832;29;20204;-84
2021/07/20 10:17:19;;;;;;;9.95;8.90;;;;;;;26.23;44.40;95818.25;4988924;28;20203;-84
2021/07/20 10:19:52;;;;;;;9.70;8.82;;;;;;;26.07;42.99;95814.88;4989500;28;20237;-85
2021/07/20 10:22:35;;;;;;;10.05;8.93;;;;;;;25.92;43.29;95807.81;5016631;28;20305;-86
2021/07/20 10:25:05;;;;;;;10.25;8.82;;;;;;;25.65;44.15;95808.09;5030720;28;20206;-86
2021/07/20 10:27:40;;;;;;;10.15;9.13;;;;;;;25.71;44.28;95808.88;5031486;28;20198;-86
2021/07/20 10:30:13;;;;;;;10.00;9.00;;;;;;;25.83;43.76;95803.31;5030962;28;20763;-86
2021/07/20 10:32:49;;;;;;;10.02;9.07;;;;;;;25.87;44.64;95809.66;5030769;28;20221;-86
2021/07/20 10:35:22;;;;;;;9.45;8.10;;;;;;;25.62;45.27;95813.91;5031325;28;20204;-86
2021/07/20 10:37:55;;;;;;;9.00;8.10;;;;;;;25.71;44.01;95806.25;5031494;28;20666;-84
2021/07/20 10:40:25;;;;;;;11.73;8.82;;;;;;;26.09;44.55;95808.28;5032180;28;20194;-84
2021/07/20 10:42:58;;;;;;;12.93;9.02;;;;;;;26.42;43.98;95806.06;5032059;28;20679;-83
2021/07/20 10:45:27;;;;;;;9.82;8.85;;;;;;;26.29;44.29;95814.53;5031213;28;20202;-84
2021/07/20 10:47:58;;;;;;;9.35;8.50;;;;;;;26.05;45.31;95809.88;5030824;28;20666;-84
2021/07/20 10:50:30;;;;;;;10.30;9.30;;;;;;;26.13;44.13;95803.25;5031016;28;20228;-84
2021/07/20 10:53:08;;;;;;;10.57;9.60;;;;;;;26.26;43.54;95813.22;5030429;28;20229;-84
2021/07/20 10:55:55;;;;;;;10.40;9.48;;;;;;;26.58;43.90;95812.06;5030327;28;20641;-86
2021/07/20 10:58:29;;;;;;;11.43;10.18;;;;;;;26.82;41.83;95805.88;5031544;28;20202;-84
2021/07/20 11:01:02;;;;;;;10.18;9.15;;;;;;;26.98;43.08;95808.44;5030828;28;20206;-85
2021/07/20 11:03:39;;;;;;;10.30;9.30;;;;;;;27.21;41.56;95805.09;5030385;28;20257;-84
2021/07/20 11:06:09;;;;;;;9.63;8.77;;;;;;;27.26;41.52;95793.69;5030988;28;20205;-84
2021/07/20 11:08:43;;;;;;;10.23;9.23;;;;;;;26.95;42.67;95796.56;5031931;28;20218;-84
2021/07/20 11:11:15;;;;;;;10.00;8.75;;;;;;;26.57;43.98;95806.00;5030038;28;20225;-86
2021/07/20 11:13:43;;;;;;;10.48;9.02;;;;;;;26.31;43.83;95801.91;5030930;28;20229;-85
2021/07/20 11:16:11;;;;;;;9.63;8.75;;;;;;;26.70;44.53;95800.13;5031630;28;20233;-86
2021/07/20 11:18:41;;;;;;;10.32;9.05;;;;;;;27.08;43.86;95798.59;5033670;28;20202;-86
2021/07/20 11:21:10;;;;;;;10.15;9.25;;;;;;;27.18;42.54;95793.22;5034223;28;20212;-85
2021/07/20 11:23:41;;;;;;;10.40;9.40;;;;;;;27.33;40.94;95792.31;5034290;28;20578;-85
2021/07/20 11:26:09;;;;;;;9.98;9.07;;;;;;;27.40;41.66;95795.44;5033526;28;20316;-86
2021/07/20 11:28:38;;;;;;;11.85;9.52;;;;;;;27.51;41.54;95794.28;5034098;28;20206;-85
2021/07/20 11:31:11;;;;;;;10.40;9.45;;;;;;;27.60;41.40;95791.84;5033852;28;20400;-86
2021/07/20 11:33:40;;;;;;;10.73;9.63;;;;;;;27.51;39.97;95785.56;5034114;28;20226;-86
2021/07/20 11:36:09;;;;;;;10.32;9.35;;;;;;;27.09;41.76;95783.53;5033212;28;20194;-84
2021/07/20 11:38:39;;;;;;;11.88;8.95;;;;;;;27.24;42.70;95778.13;5033593;28;20208;-85
2021/07/20 11:41:17;;;;;;;10.00;9.00;;;;;;;27.31;40.81;95777.81;5032653;28;20775;-86
2021/07/20 11:43:54;;;;;;;10.07;9.07;;;;;;;26.96;42.64;95786.78;5032980;28;20227;-85
2021/07/20 11:46:25;;;;;;;10.70;9.18;;;;;;;26.57;44.30;95784.84;5033349;28;20255;-87
2021/07/20 11:48:55;;;;;;;10.20;9.40;;;;;;;26.56;43.59;95778.00;5032834;28;20209;-86
2021/07/20 11:51:29;;;;;;;11.25;10.15;;;;;;;26.77;42.01;95779.47;5032215;28;20234;-86
2021/07/20 11:54:05;;;;;;;11.68;10.55;;;;;;;27.06;41.80;95778.78;5032778;28;20199;-86
2021/07/20 11:56:34;;;;;;;11.55;10.35;;;;;;;27.24;40.85;95769.41;5032334;28;20206;-86
2021/07/20 11:59:37;;;;;;;11.55;10.32;;;;;;;27.37;40.68;95774.81;5032396;28;20202;-86
2021/07/20 12:02:36;;;;;;;12.75;11.57;;;;;;;27.62;38.48;95767.75;5018191;28;20222;-86
2021/07/20 12:05:19;;;;;;;12.43;10.93;;;;;;;27.69;39.52;95768.22;5032594;28;20202;-85
2021/07/20 12:07:49;;;;;;;11.63;10.52;;;;;;;27.81;39.53;95761.47;5032430;28;20206;-86